Time;durP1;ratioP1;P1;durP2;ratioP2;P2;SDS_P1;SDS_P2;PMS_P1;PMS_P2;Temp;Humidity;BMP_temperature;BMP_pressure;BME280_temperature;BME280_humidity;BME280_pressure;Samples;Min_cycle;Max_cycle;Signal;HPM_P1;HPM_P2
2023/05/27 00:01:45;;;;;;;30.83;12.35;;;;;;;;;;5017849;28;20056;-63
2023/05/27 00:04:11;;;;;;;24.80;10.63;;;;;;;;;;5018435;28;20044;-63
2023/05/27 00:06:37;;;;;;;29.63;12.55;;;;;;;;;;4982643;28;20038;-62
2023/05/27 00:09:04;;;;;;;27.88;11.68;;;;;;;;;;5016196;28;20061;-63
2023/05/27 00:11:30;;;;;;;27.08;10.90;;;;;;;;;;5021615;28;20418;-62
2023/05/27 00:13:56;;;;;;;25.73;12.02;;;;;;;;;;5000953;28;20048;-62
2023/05/27 00:16:23;;;;;;;26.08;11.50;;;;;;;;;;5023857;28;20037;-63
2023/05/27 00:18:49;;;;;;;26.23;12.45;;;;;;;;;;5023139;28;20410;-62
2023/05/27 00:21:15;;;;;;;28.05;11.13;;;;;;;;;;5028024;28;20407;-63
2023/05/27 00:23:46;;;;;;;24.77;11.30;;;;;;;;;;5002567;28;20038;-62
2023/05/27 00:26:12;;;;;;;20.48;10.43;;;;;;;;;;5023757;28;20149;-62
2023/05/27 00:28:38;;;;;;;31.50;11.60;;;;;;;;;;4998695;28;20395;-62
2023/05/27 00:31:04;;;;;;;27.40;11.75;;;;;;;;;;4999975;28;20383;-62
2023/05/27 00:33:30;;;;;;;20.08;10.90;;;;;;;;;;5027213;28;20037;-62
2023/05/27 00:35:56;;;;;;;23.60;11.05;;;;;;;;;;5025972;28;20381;-62
2023/05/27 00:38:22;;;;;;;26.23;11.30;;;;;;;;;;5008244;28;20038;-62
2023/05/27 00:40:49;;;;;;;23.35;11.95;;;;;;;;;;5006459;28;20356;-63
2023/05/27 00:43:15;;;;;;;29.40;11.27;;;;;;;;;;4988197;28;20483;-62
2023/05/27 00:45:42;;;;;;;26.90;11.25;;;;;;;;;;4998849;28;20050;-62
2023/05/27 00:48:08;;;;;;;23.65;11.50;;;;;;;;;;5014018;28;20057;-62
2023/05/27 00:50:34;;;;;;;27.90;11.55;;;;;;;;;;5011160;28;20052;-62
2023/05/27 00:53:01;;;;;;;27.60;11.18;;;;;;;;;;5014169;28;20053;-62
2023/05/27 00:55:27;;;;;;;29.50;11.60;;;;;;;;;;5022198;28;20037;-62
2023/05/27 00:57:54;;;;;;;22.33;10.20;;;;;;;;;;5031703;28;20037;-62
2023/05/27 01:00:21;;;;;;;23.02;10.18;;;;;;;;;;4999214;28;20495;-62
2023/05/27 01:02:49;;;;;;;26.98;11.20;;;;;;;;;;5005613;28;20180;-62
2023/05/27 01:05:17;;;;;;;26.73;11.63;;;;;;;;;;4997791;28;20212;-63
2023/05/27 01:08:01;;;;;;;25.45;11.40;;;;;;;;;;4995295;28;20514;-62
2023/05/27 01:10:50;;;;;;;29.05;11.07;;;;;;;;;;5006484;28;20044;-62
2023/05/27 01:13:38;;;;;;;22.02;10.48;;;;;;;;;;5008052;28;20041;-62
2023/05/27 01:16:11;;;;;;;23.40;10.73;;;;;;;;;;5007872;28;20419;-62
2023/05/27 01:18:40;;;;;;;23.67;10.48;;;;;;;;;;5016547;28;20045;-63
2023/05/27 01:21:10;;;;;;;26.80;11.07;;;;;;;;;;5021315;28;20053;-60
2023/05/27 01:23:39;;;;;;;25.00;11.05;;;;;;;;;;5000861;28;20033;-63
2023/05/27 01:26:05;;;;;;;20.15;10.07;;;;;;;;;;5019920;28;20039;-62
2023/05/27 01:28:32;;;;;;;22.48;10.23;;;;;;;;;;4992782;28;20050;-62
2023/05/27 01:31:13;;;;;;;22.20;10.45;;;;;;;;;;5012675;28;20048;-62
2023/05/27 01:33:43;;;;;;;21.17;9.85;;;;;;;;;;5022274;28;20025;-63
2023/05/27 01:36:20;;;;;;;24.65;10.30;;;;;;;;;;5009589;28;20045;-62
2023/05/27 01:38:48;;;;;;;21.98;9.95;;;;;;;;;;5008745;28;20036;-62
2023/05/27 01:41:15;;;;;;;18.38;9.80;;;;;;;;;;5001559;28;20060;-62
2023/05/27 01:43:42;;;;;;;21.60;10.25;;;;;;;;;;5025894;28;20042;-62
2023/05/27 01:46:10;;;;;;;23.88;10.10;;;;;;;;;;5021160;28;20033;-62
2023/05/27 01:48:37;;;;;;;22.00;9.45;;;;;;;;;;5005895;28;20036;-60
2023/05/27 01:51:03;;;;;;;20.80;10.48;;;;;;;;;;5021666;28;20045;-63
2023/05/27 01:53:29;;;;;;;21.00;8.85;;;;;;;;;;5010622;28;20061;-61
2023/05/27 01:55:55;;;;;;;18.55;9.65;;;;;;;;;;4996994;28;20038;-62
2023/05/27 01:58:21;;;;;;;16.88;9.07;;;;;;;;;;4994312;28;20057;-62
2023/05/27 02:00:47;;;;;;;20.85;9.00;;;;;;;;;;5001993;28;20038;-62
2023/05/27 02:03:14;;;;;;;18.20;9.15;;;;;;;;;;4995785;28;20041;-62
2023/05/27 02:05:41;;;;;;;17.75;8.82;;;;;;;;;;5005333;28;20038;-62
2023/05/27 02:08:08;;;;;;;15.80;8.75;;;;;;;;;;5001702;28;20041;-62
2023/05/27 02:10:35;;;;;;;23.80;9.50;;;;;;;;;;4999192;28;20061;-62
2023/05/27 02:13:02;;;;;;;19.85;8.20;;;;;;;;;;5005855;28;20037;-63
2023/05/27 02:15:29;;;;;;;19.52;8.85;;;;;;;;;;4997012;28;20262;-62
2023/05/27 02:17:56;;;;;;;19.27;9.30;;;;;;;;;;4999359;28;20049;-60
2023/05/27 02:20:22;;;;;;;19.08;8.40;;;;;;;;;;4998462;28;20046;-62
2023/05/27 02:22:52;;;;;;;19.23;8.07;;;;;;;;;;4998021;28;20060;-63
2023/05/27 02:25:18;;;;;;;19.40;8.18;;;;;;;;;;5011965;28;20026;-62
2023/05/27 02:27:48;;;;;;;14.85;8.27;;;;;;;;;;4994140;28;20422;-62
2023/05/27 02:30:15;;;;;;;16.05;7.63;;;;;;;;;;4998277;28;20041;-62
2023/05/27 02:32:42;;;;;;;19.63;7.60;;;;;;;;;;5005375;28;20057;-63
2023/05/27 02:35:08;;;;;;;20.58;8.05;;;;;;;;;;4988023;28;20637;-61
2023/05/27 02:37:34;;;;;;;12.85;6.90;;;;;;;;;;5005193;28;20031;-62
2023/05/27 02:40:00;;;;;;;18.00;7.72;;;;;;;;;;5019356;28;20036;-62
2023/05/27 02:42:27;;;;;;;18.42;8.25;;;;;;;;;;5008783;28;20030;-62
2023/05/27 02:44:53;;;;;;;22.58;7.60;;;;;;;;;;5028336;28;20036;-61
2023/05/27 02:47:19;;;;;;;16.75;7.50;;;;;;;;;;5000327;28;20060;-62
2023/05/27 02:49:46;;;;;;;15.57;7.32;;;;;;;;;;5030380;28;20034;-61
2023/05/27 02:52:12;;;;;;;16.48;7.25;;;;;;;;;;5007246;28;20045;-61
2023/05/27 02:54:38;;;;;;;14.68;6.82;;;;;;;;;;5008476;28;20486;-62
2023/05/27 02:57:04;;;;;;;13.77;6.90;;;;;;;;;;4997704;28;20041;-61
2023/05/27 02:59:30;;;;;;;11.60;6.15;;;;;;;;;;5030402;28;20407;-61
2023/05/27 03:01:56;;;;;;;16.20;6.53;;;;;;;;;;5012587;28;20066;-62
2023/05/27 03:04:23;;;;;;;14.93;7.18;;;;;;;;;;5007289;28;20052;-62
2023/05/27 03:06:49;;;;;;;15.07;6.43;;;;;;;;;;4994429;28;20045;-62
2023/05/27 03:09:15;;;;;;;13.95;6.78;;;;;;;;;;5012662;28;20045;-60
2023/05/27 03:11:42;;;;;;;13.88;6.35;;;;;;;;;;5020046;28;20034;-62
2023/05/27 03:14:10;;;;;;;13.65;6.55;;;;;;;;;;5019889;28;20038;-62
2023/05/27 03:16:36;;;;;;;11.95;5.82;;;;;;;;;;5017999;28;20034;-62
2023/05/27 03:19:03;;;;;;;13.85;6.80;;;;;;;;;;5000882;28;20053;-62
2023/05/27 03:21:30;;;;;;;13.23;6.90;;;;;;;;;;4990423;28;20034;-61
2023/05/27 03:23:56;;;;;;;14.23;7.15;;;;;;;;;;4998391;28;20045;-62
2023/05/27 03:26:23;;;;;;;19.95;7.03;;;;;;;;;;5021126;28;20038;-62
2023/05/27 03:28:49;;;;;;;15.00;6.47;;;;;;;;;;4983041;28;20691;-63
2023/05/27 03:31:16;;;;;;;12.90;6.13;;;;;;;;;;5027134;28;20061;-62
2023/05/27 03:33:54;;;;;;;14.90;5.82;;;;;;;;;;5006734;28;20639;-63
2023/05/27 03:36:21;;;;;;;11.48;6.07;;;;;;;;;;5002269;28;20541;-62
2023/05/27 03:38:48;;;;;;;11.25;6.25;;;;;;;;;;4997886;28;20083;-61
2023/05/27 03:41:15;;;;;;;13.18;6.07;;;;;;;;;;5004240;28;20473;-62
2023/05/27 03:43:41;;;;;;;15.63;5.85;;;;;;;;;;4999061;28;20045;-62
2023/05/27 03:46:08;;;;;;;11.82;6.05;;;;;;;;;;5006488;28;20045;-61
2023/05/27 03:48:34;;;;;;;15.23;6.00;;;;;;;;;;5009576;28;20517;-61
2023/05/27 03:51:00;;;;;;;11.63;6.45;;;;;;;;;;4997002;28;20049;-60
2023/05/27 03:53:26;;;;;;;12.18;5.30;;;;;;;;;;5005095;28;20147;-62
2023/05/27 03:55:53;;;;;;;13.13;5.53;;;;;;;;;;5005146;28;20048;-61
2023/05/27 03:58:19;;;;;;;15.25;5.70;;;;;;;;;;5016388;28;20507;-62
2023/05/27 04:00:47;;;;;;;12.73;5.70;;;;;;;;;;4997465;28;20053;-62
2023/05/27 04:03:14;;;;;;;9.65;5.30;;;;;;;;;;4998810;28;20048;-61
2023/05/27 04:05:41;;;;;;;11.65;6.05;;;;;;;;;;4994420;28;20042;-62
2023/05/27 04:08:07;;;;;;;10.27;5.63;;;;;;;;;;5005033;28;20037;-61
2023/05/27 04:10:33;;;;;;;10.13;5.07;;;;;;;;;;5019962;28;20037;-62
2023/05/27 04:12:59;;;;;;;10.73;5.28;;;;;;;;;;5005905;28;20045;-61
2023/05/27 04:15:26;;;;;;;9.60;5.00;;;;;;;;;;5000032;28;20030;-61
2023/05/27 04:17:52;;;;;;;11.98;5.05;;;;;;;;;;4999563;28;20029;-60
2023/05/27 04:20:18;;;;;;;10.82;5.65;;;;;;;;;;5015064;28;20410;-61
2023/05/27 04:22:47;;;;;;;13.32;6.35;;;;;;;;;;5004622;28;20044;-61
2023/05/27 04:25:14;;;;;;;9.77;4.95;;;;;;;;;;5001603;28;20049;-59
2023/05/27 04:28:04;;;;;;;9.18;5.13;;;;;;;;;;4999162;28;20041;-61
2023/05/27 04:30:33;;;;;;;9.80;4.95;;;;;;;;;;5000790;28;20042;-61
2023/05/27 04:33:01;;;;;;;8.82;5.28;;;;;;;;;;5007242;28;20036;-61
2023/05/27 04:35:27;;;;;;;11.07;5.10;;;;;;;;;;4997355;28;20050;-61
2023/05/27 04:37:53;;;;;;;11.20;5.43;;;;;;;;;;5022354;28;20551;-61
2023/05/27 04:40:21;;;;;;;14.48;5.38;;;;;;;;;;4998219;28;20034;-61
2023/05/27 04:43:07;;;;;;;12.70;4.95;;;;;;;;;;5016258;28;20055;-61
2023/05/27 04:45:34;;;;;;;10.70;5.28;;;;;;;;;;4995921;28;20033;-61
2023/05/27 04:48:00;;;;;;;9.10;4.45;;;;;;;;;;5007866;28;20056;-61
2023/05/27 04:50:28;;;;;;;12.40;5.90;;;;;;;;;;5008297;28;20049;-60
2023/05/27 04:52:55;;;;;;;8.70;4.90;;;;;;;;;;4998963;28;20064;-62
2023/05/27 04:55:21;;;;;;;13.55;6.38;;;;;;;;;;4995349;28;20041;-62
2023/05/27 04:57:48;;;;;;;8.98;4.57;;;;;;;;;;4996544;28;20034;-61
2023/05/27 05:00:35;;;;;;;8.50;4.82;;;;;;;;;;4997613;28;20041;-61
2023/05/27 05:03:03;;;;;;;10.23;4.63;;;;;;;;;;5005995;28;20033;-61
2023/05/27 05:05:32;;;;;;;;;;;;;;;;;;4998995;28;20050;-62
2023/05/27 05:07:59;;;;;;;10.40;4.70;;;;;;;;;;5006872;28;19924;-60
2023/05/27 05:10:26;;;;;;;14.05;5.40;;;;;;;;;;5015651;28;20041;-60
2023/05/27 05:12:53;;;;;;;11.35;6.07;;;;;;;;;;5005972;28;20033;-60
2023/05/27 05:15:19;;;;;;;12.90;5.88;;;;;;;;;;4980423;28;20041;-59
2023/05/27 05:17:47;;;;;;;11.88;5.60;;;;;;;;;;5002900;28;20044;-58
2023/05/27 05:20:14;;;;;;;10.25;5.20;;;;;;;;;;5000200;28;20148;-60
2023/05/27 05:22:40;;;;;;;9.60;5.80;;;;;;;;;;5004538;28;20045;-60
2023/05/27 05:25:07;;;;;;;11.68;5.07;;;;;;;;;;5010098;28;20045;-60
2023/05/27 05:27:39;;;;;;;13.25;5.32;;;;;;;;;;5002702;28;20114;-60
2023/05/27 05:30:06;;;;;;;9.35;5.15;;;;;;;;;;5007183;28;20036;-58
2023/05/27 05:32:32;;;;;;;12.10;5.70;;;;;;;;;;5006608;28;20037;-59
2023/05/27 05:34:59;;;;;;;15.50;5.97;;;;;;;;;;5007433;28;20041;-57
2023/05/27 05:37:26;;;;;;;13.45;5.78;;;;;;;;;;4986997;28;20032;-58
2023/05/27 05:39:55;;;;;;;14.50;5.50;;;;;;;;;;5015197;28;20037;-59
2023/05/27 05:42:22;;;;;;;;;;;;;;;;;;5002917;28;20041;-58
2023/05/27 05:44:48;;;;;;;15.35;5.45;;;;;;;;;;5002046;28;20305;-59
2023/05/27 05:47:14;;;;;;;11.93;5.45;;;;;;;;;;4995532;28;20048;-59
2023/05/27 05:49:42;;;;;;;16.15;5.30;;;;;;;;;;5000453;28;20056;-59
2023/05/27 05:52:11;;;;;;;11.00;5.45;;;;;;;;;;5001738;28;20045;-60
2023/05/27 05:54:37;;;;;;;13.98;6.43;;;;;;;;;;5002763;28;20415;-60
2023/05/27 05:57:03;;;;;;;16.58;5.97;;;;;;;;;;5009482;28;20045;-60
2023/05/27 05:59:29;;;;;;;14.25;6.10;;;;;;;;;;4986993;28;20053;-60
2023/05/27 06:01:56;;;;;;;13.63;5.40;;;;;;;;;;4986244;28;20048;-60
2023/05/27 06:04:25;;;;;;;13.60;6.00;;;;;;;;;;4995698;28;20033;-59
2023/05/27 06:06:52;;;;;;;13.52;5.53;;;;;;;;;;4997934;28;20117;-58
2023/05/27 06:09:38;;;;;;;15.05;6.38;;;;;;;;;;5000639;28;20499;-60
2023/05/27 06:12:09;;;;;;;13.77;5.68;;;;;;;;;;5001659;28;20410;-60
2023/05/27 06:14:41;;;;;;;14.48;5.75;;;;;;;;;;5000470;28;20113;-60
2023/05/27 06:17:09;;;;;;;13.50;5.10;;;;;;;;;;5002196;28;20040;-60
2023/05/27 06:19:35;;;;;;;13.23;6.30;;;;;;;;;;5017744;28;20036;-60
2023/05/27 06:22:02;;;;;;;12.43;5.60;;;;;;;;;;5004459;28;20050;-58
2023/05/27 06:24:40;;;;;;;13.45;5.50;;;;;;;;;;5024897;28;20049;-59
2023/05/27 06:27:21;;;;;;;23.15;6.38;;;;;;;;;;5000917;28;20037;-59
2023/05/27 06:29:47;;;;;;;17.88;6.03;;;;;;;;;;4998744;28;20408;-59
2023/05/27 06:32:19;;;;;;;13.82;5.65;;;;;;;;;;4989642;28;20048;-59
2023/05/27 06:34:46;;;;;;;16.00;5.43;;;;;;;;;;4996768;28;20045;-59
2023/05/27 06:37:12;;;;;;;14.02;5.60;;;;;;;;;;4979703;28;20054;-59
2023/05/27 06:39:38;;;;;;;14.55;5.50;;;;;;;;;;4988723;28;20491;-59
2023/05/27 06:42:04;;;;;;;15.32;5.97;;;;;;;;;;5020895;28;20034;-59
2023/05/27 06:44:43;;;;;;;15.93;5.43;;;;;;;;;;5000984;28;20049;-59
2023/05/27 06:47:15;;;;;;;15.70;5.50;;;;;;;;;;4978851;28;20053;-59
2023/05/27 06:49:42;;;;;;;13.07;5.63;;;;;;;;;;5005711;28;20034;-60
2023/05/27 06:52:08;;;;;;;15.50;5.90;;;;;;;;;;5019069;28;20438;-60
2023/05/27 06:54:47;;;;;;;13.70;5.40;;;;;;;;;;5007633;28;20025;-60
2023/05/27 06:57:36;;;;;;;17.52;5.82;;;;;;;;;;4978716;28;20050;-59
2023/05/27 07:00:18;;;;;;;16.98;6.15;;;;;;;;;;4994452;28;20534;-59
2023/05/27 07:03:00;;;;;;;11.60;5.20;;;;;;;;;;4998504;28;20053;-60
2023/05/27 07:05:26;;;;;;;18.10;5.78;;;;;;;;;;4982542;28;20036;-60
2023/05/27 07:07:52;;;;;;;14.40;5.68;;;;;;;;;;5018932;28;20065;-60
2023/05/27 07:10:19;;;;;;;13.90;5.68;;;;;;;;;;4994921;28;20050;-60
2023/05/27 07:12:45;;;;;;;11.20;4.55;;;;;;;;;;5002757;28;20049;-59
2023/05/27 07:15:22;;;;;;;10.73;4.95;;;;;;;;;;5005908;28;20037;-60
2023/05/27 07:17:48;;;;;;;11.35;5.50;;;;;;;;;;5002116;28;20042;-57
2023/05/27 07:20:15;;;;;;;11.52;4.95;;;;;;;;;;4997373;28;20470;-59
2023/05/27 07:22:42;;;;;;;16.17;6.00;;;;;;;;;;4975949;28;20411;-59
2023/05/27 07:25:09;;;;;;;13.25;5.35;;;;;;;;;;4994727;28;20049;-58
2023/05/27 07:27:36;;;;;;;10.90;5.30;;;;;;;;;;4993470;28;20053;-58
2023/05/27 07:30:03;;;;;;;17.08;6.28;;;;;;;;;;4996016;28;20041;-59
2023/05/27 07:32:39;;;;;;;16.17;5.40;;;;;;;;;;4993480;28;20061;-59
2023/05/27 07:35:05;;;;;;;17.65;5.75;;;;;;;;;;5008179;28;20379;-59
2023/05/27 07:37:32;;;;;;;20.98;7.20;;;;;;;;;;5019493;28;20034;-60
2023/05/27 07:39:58;;;;;;;22.67;8.52;;;;;;;;;;4994329;28;20048;-60
2023/05/27 07:42:24;;;;;;;21.48;8.00;;;;;;;;;;5005469;28;20037;-58
2023/05/27 07:44:50;;;;;;;18.38;6.40;;;;;;;;;;4980313;28;20061;-61
2023/05/27 07:47:16;;;;;;;21.02;7.10;;;;;;;;;;5003911;28;20033;-59
2023/05/27 07:49:43;;;;;;;15.10;6.63;;;;;;;;;;5006614;28;20590;-59
2023/05/27 07:52:35;;;;;;;17.13;6.20;;;;;;;;;;5012355;28;20061;-60
2023/05/27 07:55:08;;;;;;;16.90;5.53;;;;;;;;;;5008615;28;20363;-60
2023/05/27 07:57:34;;;;;;;12.15;5.40;;;;;;;;;;5005801;28;20041;-60
2023/05/27 08:00:01;;;;;;;14.45;5.38;;;;;;;;;;5009667;28;20045;-60
2023/05/27 08:02:43;;;;;;;17.85;5.93;;;;;;;;;;5020014;28;20053;-58
2023/05/27 08:05:10;;;;;;;14.98;5.43;;;;;;;;;;5017790;28;20050;-60
2023/05/27 08:07:55;;;;;;;12.38;6.00;;;;;;;;;;4997806;28;20056;-60
2023/05/27 08:10:47;;;;;;;17.88;6.20;;;;;;;;;;4985280;28;20056;-60
2023/05/27 08:13:32;;;;;;;15.77;5.32;;;;;;;;;;5024629;28;20422;-59
2023/05/27 08:16:10;;;;;;;15.45;7.32;;;;;;;;;;4992998;28;20054;-59
2023/05/27 08:19:00;;;;;;;12.98;5.45;;;;;;;;;;5013624;28;20391;-59
2023/05/27 08:21:43;;;;;;;13.80;5.78;;;;;;;;;;5001008;28;20900;-58
2023/05/27 08:24:30;;;;;;;14.48;5.68;;;;;;;;;;5019451;28;20057;-62
2023/05/27 08:27:18;;;;;;;14.35;6.15;;;;;;;;;;5009950;28;20038;-60
2023/05/27 08:30:00;;;;;;;11.43;5.60;;;;;;;;;;4999939;28;20411;-61
2023/05/27 08:32:57;;;;;;;18.65;6.78;;;;;;;;;;4998635;28;20053;-59
2023/05/27 08:35:24;;;;;;;13.38;5.70;;;;;;;;;;5013863;28;20387;-60
2023/05/27 08:37:50;;;;;;;13.88;6.13;;;;;;;;;;5028032;28;20033;-63
2023/05/27 08:40:19;;;;;;;12.48;6.03;;;;;;;;;;5006238;28;20041;-63
2023/05/27 08:42:48;;;;;;;10.70;6.13;;;;;;;;;;4998544;28;20038;-63
2023/05/27 08:45:16;;;;;;;11.43;6.10;;;;;;;;;;4998993;28;20044;-62
2023/05/27 08:47:42;;;;;;;14.32;6.35;;;;;;;;;;4981677;28;20522;-63
2023/05/27 08:50:14;;;;;;;15.13;7.90;;;;;;;;;;5010060;28;20046;-60
2023/05/27 08:52:51;;;;;;;15.70;6.78;;;;;;;;;;4995768;28;20684;-60
2023/05/27 08:55:23;;;;;;;14.93;7.13;;;;;;;;;;4996355;28;20579;-64
2023/05/27 08:57:56;;;;;;;17.55;7.75;;;;;;;;;;5000562;28;20507;-64
2023/05/27 09:00:25;;;;;;;13.27;6.90;;;;;;;;;;5002819;28;20045;-64
2023/05/27 09:02:59;;;;;;;12.63;6.65;;;;;;;;;;5002479;28;20049;-64
2023/05/27 09:05:30;;;;;;;13.23;6.65;;;;;;;;;;5003660;28;20538;-62
2023/05/27 09:07:56;;;;;;;12.50;6.40;;;;;;;;;;5018915;28;20056;-64
2023/05/27 09:10:22;;;;;;;16.42;6.90;;;;;;;;;;5007879;28;20498;-64
2023/05/27 09:12:50;;;;;;;12.75;6.60;;;;;;;;;;5027250;28;20046;-64
2023/05/27 09:15:16;;;;;;;13.85;7.20;;;;;;;;;;5013056;28;20034;-63
2023/05/27 09:17:44;;;;;;;11.73;7.05;;;;;;;;;;5017281;28;20045;-64
2023/05/27 09:20:11;;;;;;;14.07;7.15;;;;;;;;;;5021837;28;20038;-64
2023/05/27 09:22:39;;;;;;;14.43;6.82;;;;;;;;;;5023698;28;20033;-63
2023/05/27 09:25:06;;;;;;;12.63;7.30;;;;;;;;;;5024923;28;20052;-64
2023/05/27 09:27:32;;;;;;;14.93;6.57;;;;;;;;;;5016265;28;20042;-65
2023/05/27 09:30:09;;;;;;;12.75;7.10;;;;;;;;;;5017696;28;20072;-63
2023/05/27 09:32:35;;;;;;;17.50;7.22;;;;;;;;;;5012301;28;20045;-62
2023/05/27 09:35:03;;;;;;;13.60;7.20;;;;;;;;;;5024973;28;20044;-63
2023/05/27 09:37:34;;;;;;;13.82;7.28;;;;;;;;;;5025499;28;20065;-61
2023/05/27 09:40:14;;;;;;;16.80;7.07;;;;;;;;;;5017379;28;20029;-64
2023/05/27 09:42:49;;;;;;;16.58;7.03;;;;;;;;;;5006775;28;20052;-64
2023/05/27 09:45:16;;;;;;;13.82;7.05;;;;;;;;;;5015056;28;20048;-63
2023/05/27 09:47:46;;;;;;;13.23;6.85;;;;;;;;;;5018020;28;20049;-64
2023/05/27 09:50:16;;;;;;;11.60;6.50;;;;;;;;;;5012895;28;20403;-63
2023/05/27 09:52:43;;;;;;;;;;;;;;;;;;5027939;28;20104;-65
2023/05/27 09:55:11;;;;;;;13.25;6.30;;;;;;;;;;5020933;28;19913;-65
2023/05/27 09:57:38;;;;;;;14.80;7.00;;;;;;;;;;5020376;28;20675;-65
2023/05/27 10:00:12;;;;;;;15.18;7.60;;;;;;;;;;5025606;28;20412;-63
2023/05/27 10:02:41;;;;;;;15.68;7.20;;;;;;;;;;5016431;28;20042;-64
2023/05/27 10:05:08;;;;;;;13.95;7.00;;;;;;;;;;5008844;28;20033;-64
2023/05/27 10:07:38;;;;;;;16.77;8.75;;;;;;;;;;5020216;28;20041;-65
2023/05/27 10:10:09;;;;;;;16.92;7.05;;;;;;;;;;5020784;28;20042;-67
2023/05/27 10:12:37;;;;;;;13.32;6.90;;;;;;;;;;5019668;28;20411;-65
2023/05/27 10:15:03;;;;;;;15.55;7.32;;;;;;;;;;5013478;28;20042;-66
2023/05/27 10:18:01;;;;;;;15.40;7.05;;;;;;;;;;5006277;28;20041;-64
2023/05/27 10:20:29;;;;;;;18.13;10.25;;;;;;;;;;4998864;28;20041;-63
2023/05/27 10:23:17;;;;;;;20.10;8.27;;;;;;;;;;5024348;28;20050;-64
2023/05/27 10:25:50;;;;;;;18.73;7.93;;;;;;;;;;5012712;28;20417;-65
2023/05/27 10:28:41;;;;;;;14.57;7.70;;;;;;;;;;5027623;28;20522;-65
2023/05/27 10:31:15;;;;;;;12.23;7.10;;;;;;;;;;5000347;28;20045;-62
2023/05/27 10:33:48;;;;;;;17.38;6.72;;;;;;;;;;5029544;28;20045;-60
2023/05/27 10:36:17;;;;;;;10.40;6.95;;;;;;;;;;5027143;28;20041;-62
2023/05/27 10:38:58;;;;;;;14.75;7.70;;;;;;;;;;5027031;28;20414;-62
2023/05/27 10:41:24;;;;;;;13.73;7.28;;;;;;;;;;5018167;28;20055;-63
2023/05/27 10:43:58;;;;;;;12.98;7.47;;;;;;;;;;4995639;28;20041;-62
2023/05/27 10:46:25;;;;;;;13.00;6.93;;;;;;;;;;5014556;28;20411;-63
2023/05/27 10:48:52;;;;;;;14.80;7.15;;;;;;;;;;4994254;28;20041;-62
2023/05/27 10:51:18;;;;;;;12.70;6.85;;;;;;;;;;5004779;28;20395;-63
2023/05/27 10:53:46;;;;;;;10.90;6.82;;;;;;;;;;5014821;28;20029;-63
2023/05/27 10:56:12;;;;;;;15.98;7.53;;;;;;;;;;5013227;28;20049;-64
2023/05/27 10:58:38;;;;;;;12.93;7.63;;;;;;;;;;5018218;28;20050;-61
2023/05/27 11:01:13;;;;;;;17.98;9.45;;;;;;;;;;5018940;28;20034;-58
2023/05/27 11:03:45;;;;;;;12.70;7.35;;;;;;;;;;5020009;28;20050;-62
2023/05/27 11:06:12;;;;;;;13.95;7.38;;;;;;;;;;5021926;28;20033;-61
2023/05/27 11:08:39;;;;;;;14.70;7.33;;;;;;;;;;5021348;28;20036;-59
2023/05/27 11:11:07;;;;;;;13.43;7.43;;;;;;;;;;5026259;28;20505;-60
2023/05/27 11:13:37;;;;;;;11.77;7.00;;;;;;;;;;5020114;28;20041;-63
2023/05/27 11:16:05;;;;;;;16.05;7.80;;;;;;;;;;5017718;28;20414;-64
2023/05/27 11:18:39;;;;;;;15.60;7.45;;;;;;;;;;5022879;28;20030;-63
2023/05/27 11:21:06;;;;;;;12.45;7.70;;;;;;;;;;5010909;28;20050;-63
2023/05/27 11:23:39;;;;;;;11.40;7.20;;;;;;;;;;5017894;28;20406;-63
2023/05/27 11:26:15;;;;;;;14.25;7.47;;;;;;;;;;5018885;28;20046;-64
2023/05/27 11:28:53;;;;;;;12.90;7.30;;;;;;;;;;5002935;28;20053;-64
2023/05/27 11:31:21;;;;;;;12.43;7.40;;;;;;;;;;5015913;28;20399;-64
2023/05/27 11:33:51;;;;;;;12.98;7.47;;;;;;;;;;5012098;28;20033;-64
2023/05/27 11:36:17;;;;;;;14.32;7.70;;;;;;;;;;5016780;28;20060;-64
2023/05/27 11:38:54;;;;;;;14.85;7.88;;;;;;;;;;5021149;28;20033;-64
2023/05/27 11:41:22;;;;;;;13.68;7.80;;;;;;;;;;5019962;28;20049;-64
2023/05/27 11:44:00;;;;;;;14.35;7.43;;;;;;;;;;5018309;28;20037;-63
2023/05/27 11:46:58;;;;;;;15.90;7.78;;;;;;;;;;5021679;28;20037;-64
2023/05/27 11:49:24;;;;;;;15.63;7.57;;;;;;;;;;5023651;28;20053;-64
2023/05/27 11:51:50;;;;;;;15.30;7.60;;;;;;;;;;5015210;28;20037;-65
2023/05/27 11:54:18;;;;;;;14.82;8.07;;;;;;;;;;5012126;28;20502;-63
2023/05/27 11:56:44;;;;;;;13.88;7.55;;;;;;;;;;5013420;28;20507;-64
2023/05/27 11:59:10;;;;;;;11.82;7.65;;;;;;;;;;5014602;28;20065;-64
2023/05/27 12:01:36;;;;;;;14.50;7.60;;;;;;;;;;5015599;28;22041;-63
2023/05/27 12:04:03;;;;;;;15.63;7.38;;;;;;;;;;5021663;28;20037;-64
2023/05/27 12:06:29;;;;;;;15.38;9.00;;;;;;;;;;5021624;28;20056;-64
2023/05/27 12:08:55;;;;;;;14.25;8.05;;;;;;;;;;5016841;28;20034;-64
2023/05/27 12:11:21;;;;;;;11.82;6.88;;;;;;;;;;5022807;28;20045;-64
2023/05/27 12:13:48;;;;;;;12.55;7.32;;;;;;;;;;5013617;28;20048;-64
2023/05/27 12:16:14;;;;;;;16.83;7.80;;;;;;;;;;5020352;28;20042;-63
2023/05/27 12:18:41;;;;;;;14.88;7.35;;;;;;;;;;5019429;28;20045;-64
2023/05/27 12:21:07;;;;;;;15.70;7.90;;;;;;;;;;5020531;28;20053;-64
2023/05/27 12:23:34;;;;;;;11.90;7.00;;;;;;;;;;5024687;28;20388;-64
2023/05/27 12:26:00;;;;;;;13.85;7.25;;;;;;;;;;5006807;28;20415;-64
2023/05/27 12:28:27;;;;;;;12.57;7.30;;;;;;;;;;5024188;28;20034;-64
2023/05/27 12:30:53;;;;;;;14.23;7.05;;;;;;;;;;5031516;28;20430;-62
2023/05/27 12:33:19;;;;;;;13.25;7.28;;;;;;;;;;5031963;28;20045;-63
2023/05/27 12:35:46;;;;;;;15.88;7.43;;;;;;;;;;5033154;28;20079;-65
2023/05/27 12:38:13;;;;;;;16.02;7.63;;;;;;;;;;5019385;28;20054;-65
2023/05/27 12:40:39;;;;;;;14.70;7.30;;;;;;;;;;5014844;28;20133;-65
2023/05/27 12:43:06;;;;;;;12.13;7.57;;;;;;;;;;5005087;28;20487;-66
2023/05/27 12:45:32;;;;;;;18.00;7.53;;;;;;;;;;5016726;28;20455;-66
2023/05/27 12:47:59;;;;;;;14.40;7.60;;;;;;;;;;5018930;28;20403;-65
2023/05/27 12:50:25;;;;;;;14.90;7.53;;;;;;;;;;5012609;28;20073;-65
2023/05/27 12:52:52;;;;;;;14.02;7.50;;;;;;;;;;5012427;28;20033;-65
2023/05/27 12:55:21;;;;;;;16.30;7.47;;;;;;;;;;5004342;28;20517;-63
2023/05/27 12:57:49;;;;;;;14.73;7.82;;;;;;;;;;5019527;28;20052;-62
2023/05/27 13:00:16;;;;;;;19.47;7.83;;;;;;;;;;5027200;28;20041;-62
2023/05/27 13:02:43;;;;;;;13.68;7.60;;;;;;;;;;5023603;28;20627;-63
2023/05/27 13:05:10;;;;;;;15.73;7.72;;;;;;;;;;4999676;28;20056;-63
2023/05/27 13:07:39;;;;;;;17.95;8.00;;;;;;;;;;5027942;28;20037;-61
2023/05/27 13:10:07;;;;;;;18.92;7.78;;;;;;;;;;5017126;28;20037;-62
2023/05/27 13:12:34;;;;;;;;;;;;;;;;;;5017303;28;20046;-61
2023/05/27 13:15:03;;;;;;;14.85;7.90;;;;;;;;;;5017653;28;19928;-62
2023/05/27 13:17:29;;;;;;;15.77;8.13;;;;;;;;;;5022329;28;20085;-62
2023/05/27 13:19:56;;;;;;;16.38;8.10;;;;;;;;;;5022963;28;20042;-62
2023/05/27 13:22:22;;;;;;;16.95;8.20;;;;;;;;;;5018051;28;20032;-62
2023/05/27 13:24:48;;;;;;;15.38;8.18;;;;;;;;;;5011621;28;20033;-62
2023/05/27 13:27:14;;;;;;;15.32;7.70;;;;;;;;;;5015749;28;20038;-62
2023/05/27 13:29:41;;;;;;;13.93;7.97;;;;;;;;;;5012750;28;20029;-62
2023/05/27 13:32:08;;;;;;;16.40;7.45;;;;;;;;;;5018379;28;20490;-62
2023/05/27 13:34:35;;;;;;;16.55;7.90;;;;;;;;;;5018067;28;20053;-62
2023/05/27 13:37:02;;;;;;;15.25;7.63;;;;;;;;;;5010578;28;20430;-62
2023/05/27 13:39:29;;;;;;;14.57;7.80;;;;;;;;;;5027806;28;20045;-62
2023/05/27 13:41:56;;;;;;;15.35;7.80;;;;;;;;;;5022383;28;20032;-62
2023/05/27 13:44:23;;;;;;;17.40;7.35;;;;;;;;;;4986227;28;20048;-63
2023/05/27 13:46:49;;;;;;;15.85;8.52;;;;;;;;;;5017787;28;20030;-62
2023/05/27 13:49:16;;;;;;;17.10;7.55;;;;;;;;;;5011216;28;20045;-62
2023/05/27 13:51:44;;;;;;;17.23;7.68;;;;;;;;;;5015672;28;20037;-62
2023/05/27 13:54:11;;;;;;;18.42;8.20;;;;;;;;;;5025037;28;20045;-62
2023/05/27 13:56:37;;;;;;;16.05;7.95;;;;;;;;;;5024971;28;20049;-62
2023/05/27 13:59:05;;;;;;;16.02;8.50;;;;;;;;;;5003908;28;20052;-62
2023/05/27 14:01:32;;;;;;;16.73;8.02;;;;;;;;;;5016002;28;20049;-62
2023/05/27 14:03:58;;;;;;;16.08;7.68;;;;;;;;;;5010048;28;20053;-62
2023/05/27 14:06:25;;;;;;;15.52;7.40;;;;;;;;;;5004616;28;20041;-62
2023/05/27 14:08:54;;;;;;;18.27;7.93;;;;;;;;;;5025501;28;20046;-62
2023/05/27 14:11:22;;;;;;;14.60;6.90;;;;;;;;;;5025386;28;20053;-62
2023/05/27 14:13:54;;;;;;;15.45;6.57;;;;;;;;;;5016364;28;20427;-62
2023/05/27 14:16:21;;;;;;;14.38;6.35;;;;;;;;;;5018283;28;20042;-62
2023/05/27 14:18:47;;;;;;;13.07;7.05;;;;;;;;;;5018019;28;20069;-62
2023/05/27 14:21:14;;;;;;;12.90;6.47;;;;;;;;;;5024887;28;20438;-62
2023/05/27 14:23:40;;;;;;;14.30;7.25;;;;;;;;;;5002242;28;20041;-62
2023/05/27 14:26:07;;;;;;;17.65;5.88;;;;;;;;;;5023697;28;20037;-63
2023/05/27 14:28:33;;;;;;;12.52;6.03;;;;;;;;;;5022192;28;20033;-63
2023/05/27 14:31:00;;;;;;;14.02;6.47;;;;;;;;;;5026215;28;20045;-63
2023/05/27 14:33:26;;;;;;;13.15;6.32;;;;;;;;;;5021030;28;20038;-63
2023/05/27 14:35:52;;;;;;;14.43;6.32;;;;;;;;;;5004788;28;20407;-63
2023/05/27 14:38:18;;;;;;;16.02;6.72;;;;;;;;;;5018780;28;20038;-63
2023/05/27 14:40:45;;;;;;;16.15;6.80;;;;;;;;;;5010948;28;20415;-63
2023/05/27 14:43:13;;;;;;;11.38;5.68;;;;;;;;;;5016756;28;20036;-63